CheckWX is a tool to help pilots better visualize weather data.  It is not intended as a substitute for an official pre-flight weather briefing.

16:52:43 UTC

CYQZ METAR
Quesnel Airport
Quesnel, Canada
Current

53 mins ago

CYQZ 101600Z AUTO 18004KT 150V210 9SM SCT008 SCT011 OVC085 13/11 A3001 RMK SLP174 DENSITY ALT 1800FT
Observed
Jul-10 @ 16:00 UTC
Wind
  • 180° at 4 KTS
Visibility
9 SM
Flight Rules
VFR
Cloud Levels
  • Scattered at 800' AGL
  • Scattered at 1,100' AGL
  • Overcast at 8,500' AGL
Temperature
13°C / 55°F
Dewpoint
11°C / 52°F
Humidity
88%
Altimeter
30.01" Hg
Pressure
1016.22 hPa
Previous

54 mins ago

CYQZ 101559Z AUTO 19004KT 120V210 9SM SCT008 OVC085 13/11 A3001 RMK SLP173 DENSITY ALT 1800FT
Observed
Jul-10 @ 15:59 UTC
Wind
  • 190° at 4 KTS
Visibility
9 SM
Flight Rules
VFR
Cloud Levels
  • Scattered at 800' AGL
  • Overcast at 8,500' AGL
Temperature
13°C / 55°F
Dewpoint
11°C / 52°F
Humidity
88%
Altimeter
30.01" Hg
Pressure
1016.22 hPa
Previous

2 hours ago

CYQZ 101516Z AUTO 20002KT 6SM BR OVC006 12/11 A3002 RMK SLP175
Observed
Jul-10 @ 15:16 UTC
Wind
  • 200° at 2 KTS
Visibility
6 SM
Flight Rules
IFR
Conditions
Mist
Cloud Levels
  • Overcast at 600' AGL
Temperature
12°C / 54°F
Dewpoint
11°C / 52°F
Humidity
94%
Altimeter
30.02" Hg
Pressure
1016.62 hPa